Lowest pressure

Not for real navigation. The accuracy of this data is not assured See disclaimer for more information



ICAO NAME COUNTRY WIND Kt GUST Kt VIS m TEMP/DEW C BARO METAR
CYQX Gander Int. Airport, Nfld. Canada 8 0 8000 0/-1 28.81 CYQX 190700Z 13008KT 5SM -SHSN FEW007 FEW012 SCT028 BKN042 BKN070 M00/M01 A2881 RMK SF1SC1SC1SC3AC1
CYDF Deer Lake, Nfld. Canada 2 0 19200 1/0 28.85 CYDF 190700Z VRB02KT 12SM -SN SCT015 OVC035 01/M00 A2885 RMK SC3SC5 SLP773
CYYT St. John’s, Nfld Canada 15 20 24000 0/-2 28.90 CYYT 190722Z 23015G20KT 15SM BKN019 M00/M02 A2890 RMK SC6 SLP793
BIVM Vestmannaeyjar Iceland 20 0 7000 5/5 28.91 BIVM 190700Z 11020KT 7000 RA SCT012 BKN025 05/05 Q0979
CYJT Stephenville, Nfld. Canada 14 29 3200 0/0 28.91 CYJT 190700Z 32014G29KT 2 0.5SM -SN BR OVC008 00/M00 A2891 RMK FG3SF5 SLP793

Show more